sensor_id;sensor_type;location;lat;lon;timestamp;temperature;humidity
8008;DHT22;4049;49.468;11.200;2022-09-09T00:00:19;13.10;99.90
8008;DHT22;4049;49.468;11.200;2022-09-09T00:02:51;13.10;99.90
8008;DHT22;4049;49.468;11.200;2022-09-09T00:05:25;13.10;99.90
8008;DHT22;4049;49.468;11.200;2022-09-09T00:07:59;13.10;99.90
8008;DHT22;4049;49.468;11.200;2022-09-09T00:10:28;13.00;99.90
8008;DHT22;4049;49.468;11.200;2022-09-09T00:13:02;13.00;99.90
8008;DHT22;4049;49.468;11.200;2022-09-09T00:15:38;13.00;99.90
8008;DHT22;4049;49.468;11.200;2022-09-09T00:18:14;13.00;99.90
8008;DHT22;4049;49.468;11.200;2022-09-09T00:20:47;13.00;99.90
8008;DHT22;4049;49.468;11.200;2022-09-09T00:23:23;13.00;99.90
8008;DHT22;4049;49.468;11.200;2022-09-09T00:25:57;12.90;99.90
8008;DHT22;4049;49.468;11.200;2022-09-09T00:28:27;12.90;99.90
8008;DHT22;4049;49.468;11.200;2022-09-09T00:31:00;12.90;99.90
8008;DHT22;4049;49.468;11.200;2022-09-09T00:33:34;12.90;99.90
8008;DHT22;4049;49.468;11.200;2022-09-09T00:36:01;12.90;99.90
8008;DHT22;4049;49.468;11.200;2022-09-09T00:38:33;12.90;99.90
8008;DHT22;4049;49.468;11.200;2022-09-09T00:41:06;12.90;99.90
8008;DHT22;4049;49.468;11.200;2022-09-09T00:43:38;12.90;99.90
8008;DHT22;4049;49.468;11.200;2022-09-09T00:46:21;12.90;99.90
8008;DHT22;4049;49.468;11.200;2022-09-09T00:48:57;12.90;99.90
8008;DHT22;4049;49.468;11.200;2022-09-09T00:51:35;12.80;99.90
8008;DHT22;4049;49.468;11.200;2022-09-09T00:54:27;12.80;99.90
8008;DHT22;4049;49.468;11.200;2022-09-09T00:57:04;12.80;99.90
8008;DHT22;4049;49.468;11.200;2022-09-09T00:59:38;12.80;99.90
8008;DHT22;4049;49.468;11.200;2022-09-09T01:02:16;12.80;99.90
8008;DHT22;4049;49.468;11.200;2022-09-09T01:04:47;12.70;99.90
8008;DHT22;4049;49.468;11.200;2022-09-09T01:07:17;12.70;99.90
8008;DHT22;4049;49.468;11.200;2022-09-09T01:09:57;12.70;99.90
8008;DHT22;4049;49.468;11.200;2022-09-09T01:12:38;12.70;99.90
8008;DHT22;4049;49.468;11.200;2022-09-09T01:15:12;12.70;99.90
8008;DHT22;4049;49.468;11.200;2022-09-09T01:17:52;12.60;99.90
8008;DHT22;4049;49.468;11.200;2022-09-09T01:20:24;12.70;99.90
8008;DHT22;4049;49.468;11.200;2022-09-09T01:23:12;12.60;99.90
8008;DHT22;4049;49.468;11.200;2022-09-09T01:26:19;12.60;99.90
8008;DHT22;4049;49.468;11.200;2022-09-09T01:28:49;12.60;99.90
8008;DHT22;4049;49.468;11.200;2022-09-09T01:31:20;12.60;99.90
8008;DHT22;4049;49.468;11.200;2022-09-09T01:33:48;12.60;99.90
8008;DHT22;4049;49.468;11.200;2022-09-09T01:36:20;12.60;99.90
8008;DHT22;4049;49.468;11.200;2022-09-09T01:38:49;12.50;99.90
8008;DHT22;4049;49.468;11.200;2022-09-09T01:41:15;12.60;99.90
8008;DHT22;4049;49.468;11.200;2022-09-09T01:43:44;12.60;99.90
8008;DHT22;4049;49.468;11.200;2022-09-09T01:46:12;12.60;99.90
8008;DHT22;4049;49.468;11.200;2022-09-09T01:48:39;12.50;99.90
8008;DHT22;4049;49.468;11.200;2022-09-09T01:51:08;12.50;99.90
8008;DHT22;4049;49.468;11.200;2022-09-09T01:53:36;12.60;99.90
8008;DHT22;4049;49.468;11.200;2022-09-09T01:56:10;12.60;99.90
8008;DHT22;4049;49.468;11.200;2022-09-09T01:58:50;12.60;99.90
8008;DHT22;4049;49.468;11.200;2022-09-09T02:01:27;12.60;99.90
8008;DHT22;4049;49.468;11.200;2022-09-09T02:04:03;12.60;99.90
8008;DHT22;4049;49.468;11.200;2022-09-09T02:06:36;12.70;99.90
8008;DHT22;4049;49.468;11.200;2022-09-09T02:09:05;12.70;99.90
8008;DHT22;4049;49.468;11.200;2022-09-09T02:11:33;12.80;99.90
8008;DHT22;4049;49.468;11.200;2022-09-09T02:14:06;12.80;99.90
8008;DHT22;4049;49.468;11.200;2022-09-09T02:16:38;12.80;99.90
8008;DHT22;4049;49.468;11.200;2022-09-09T02:19:08;12.80;99.90
8008;DHT22;4049;49.468;11.200;2022-09-09T02:21:40;12.80;99.90
8008;DHT22;4049;49.468;11.200;2022-09-09T02:24:08;12.80;99.90
8008;DHT22;4049;49.468;11.200;2022-09-09T02:26:39;12.90;99.90
8008;DHT22;4049;49.468;11.200;2022-09-09T02:29:11;12.90;99.90
8008;DHT22;4049;49.468;11.200;2022-09-09T02:31:39;12.90;99.90
8008;DHT22;4049;49.468;11.200;2022-09-09T02:34:09;12.90;99.90
8008;DHT22;4049;49.468;11.200;2022-09-09T02:36:38;12.90;99.90
8008;DHT22;4049;49.468;11.200;2022-09-09T02:39:08;12.90;99.90
8008;DHT22;4049;49.468;11.200;2022-09-09T02:41:38;13.00;99.90
8008;DHT22;4049;49.468;11.200;2022-09-09T02:44:11;13.00;99.90
8008;DHT22;4049;49.468;11.200;2022-09-09T02:47:04;13.00;99.90
8008;DHT22;4049;49.468;11.200;2022-09-09T02:49:43;13.00;99.90
8008;DHT22;4049;49.468;11.200;2022-09-09T02:52:16;13.00;99.90
8008;DHT22;4049;49.468;11.200;2022-09-09T02:54:45;13.00;99.90
8008;DHT22;4049;49.468;11.200;2022-09-09T02:57:14;13.00;99.90
8008;DHT22;4049;49.468;11.200;2022-09-09T02:59:45;13.10;99.90
8008;DHT22;4049;49.468;11.200;2022-09-09T03:02:13;13.00;99.90
8008;DHT22;4049;49.468;11.200;2022-09-09T03:04:40;13.10;99.90
8008;DHT22;4049;49.468;11.200;2022-09-09T03:07:10;13.10;99.90
8008;DHT22;4049;49.468;11.200;2022-09-09T03:09:37;13.10;99.90
8008;DHT22;4049;49.468;11.200;2022-09-09T03:12:04;13.10;99.90
8008;DHT22;4049;49.468;11.200;2022-09-09T03:14:32;13.10;99.90
8008;DHT22;4049;49.468;11.200;2022-09-09T03:17:01;13.10;99.90
8008;DHT22;4049;49.468;11.200;2022-09-09T03:19:31;13.10;99.90
8008;DHT22;4049;49.468;11.200;2022-09-09T03:21:58;13.10;99.90
8008;DHT22;4049;49.468;11.200;2022-09-09T03:24:25;13.20;99.90
8008;DHT22;4049;49.468;11.200;2022-09-09T03:26:52;13.10;99.90
8008;DHT22;4049;49.468;11.200;2022-09-09T03:29:21;13.10;99.90
8008;DHT22;4049;49.468;11.200;2022-09-09T03:31:48;13.10;99.90
8008;DHT22;4049;49.468;11.200;2022-09-09T03:34:17;13.10;99.90
8008;DHT22;4049;49.468;11.200;2022-09-09T03:36:44;13.10;99.90
8008;DHT22;4049;49.468;11.200;2022-09-09T03:39:11;13.10;99.90
8008;DHT22;4049;49.468;11.200;2022-09-09T03:41:39;13.10;99.90
8008;DHT22;4049;49.468;11.200;2022-09-09T03:44:06;13.10;99.90
8008;DHT22;4049;49.468;11.200;2022-09-09T03:46:33;13.10;99.90
8008;DHT22;4049;49.468;11.200;2022-09-09T03:49:00;13.10;99.90
8008;DHT22;4049;49.468;11.200;2022-09-09T03:51:29;13.00;99.90
8008;DHT22;4049;49.468;11.200;2022-09-09T03:53:56;13.00;99.90
8008;DHT22;4049;49.468;11.200;2022-09-09T03:56:23;13.00;99.90
8008;DHT22;4049;49.468;11.200;2022-09-09T03:58:50;13.00;99.90
8008;DHT22;4049;49.468;11.200;2022-09-09T04:01:17;13.10;99.90
8008;DHT22;4049;49.468;11.200;2022-09-09T04:03:44;13.10;99.90
8008;DHT22;4049;49.468;11.200;2022-09-09T04:06:12;13.10;99.90
8008;DHT22;4049;49.468;11.200;2022-09-09T04:08:41;13.10;99.90
8008;DHT22;4049;49.468;11.200;2022-09-09T04:11:09;13.10;99.90
8008;DHT22;4049;49.468;11.200;2022-09-09T04:13:37;13.10;99.90
8008;DHT22;4049;49.468;11.200;2022-09-09T04:16:05;13.10;99.90
8008;DHT22;4049;49.468;11.200;2022-09-09T04:18:32;13.10;99.90
8008;DHT22;4049;49.468;11.200;2022-09-09T04:20:59;13.10;99.90
8008;DHT22;4049;49.468;11.200;2022-09-09T04:23:28;13.20;99.90
8008;DHT22;4049;49.468;11.200;2022-09-09T04:25:58;13.20;99.90
8008;DHT22;4049;49.468;11.200;2022-09-09T04:28:27;13.20;99.90
8008;DHT22;4049;49.468;11.200;2022-09-09T04:30:54;13.20;99.90
8008;DHT22;4049;49.468;11.200;2022-09-09T04:33:24;13.20;99.90
8008;DHT22;4049;49.468;11.200;2022-09-09T04:35:52;13.20;99.90
8008;DHT22;4049;49.468;11.200;2022-09-09T04:38:20;13.20;99.90
8008;DHT22;4049;49.468;11.200;2022-09-09T04:40:50;13.20;99.90
8008;DHT22;4049;49.468;11.200;2022-09-09T04:43:18;13.20;99.90
8008;DHT22;4049;49.468;11.200;2022-09-09T04:45:48;13.20;99.90
8008;DHT22;4049;49.468;11.200;2022-09-09T04:48:15;13.30;99.90
8008;DHT22;4049;49.468;11.200;2022-09-09T04:50:42;13.20;99.90
8008;DHT22;4049;49.468;11.200;2022-09-09T04:53:09;13.30;99.90
8008;DHT22;4049;49.468;11.200;2022-09-09T04:55:36;13.30;99.90
8008;DHT22;4049;49.468;11.200;2022-09-09T04:58:04;13.30;99.90
8008;DHT22;4049;49.468;11.200;2022-09-09T05:00:33;13.30;99.90
8008;DHT22;4049;49.468;11.200;2022-09-09T05:03:03;13.30;99.90
8008;DHT22;4049;49.468;11.200;2022-09-09T05:05:31;13.30;99.90
8008;DHT22;4049;49.468;11.200;2022-09-09T05:08:01;13.30;99.90
8008;DHT22;4049;49.468;11.200;2022-09-09T05:10:28;13.30;99.90
8008;DHT22;4049;49.468;11.200;2022-09-09T05:12:55;13.30;99.90
8008;DHT22;4049;49.468;11.200;2022-09-09T05:15:22;13.30;99.90
8008;DHT22;4049;49.468;11.200;2022-09-09T05:17:51;13.40;99.90
8008;DHT22;4049;49.468;11.200;2022-09-09T05:20:19;13.40;99.90
8008;DHT22;4049;49.468;11.200;2022-09-09T05:22:46;13.40;99.90
8008;DHT22;4049;49.468;11.200;2022-09-09T05:25:15;13.40;99.90
8008;DHT22;4049;49.468;11.200;2022-09-09T05:27:41;13.40;99.90
8008;DHT22;4049;49.468;11.200;2022-09-09T05:30:09;13.50;99.90
8008;DHT22;4049;49.468;11.200;2022-09-09T05:32:36;13.50;99.90
8008;DHT22;4049;49.468;11.200;2022-09-09T05:35:05;13.50;99.90
8008;DHT22;4049;49.468;11.200;2022-09-09T05:37:32;13.50;99.90
8008;DHT22;4049;49.468;11.200;2022-09-09T05:39:59;13.60;99.90
8008;DHT22;4049;49.468;11.200;2022-09-09T05:42:29;13.60;99.90
8008;DHT22;4049;49.468;11.200;2022-09-09T05:44:57;13.70;99.90
8008;DHT22;4049;49.468;11.200;2022-09-09T05:47:24;13.70;99.90
8008;DHT22;4049;49.468;11.200;2022-09-09T05:49:53;13.70;99.90
8008;DHT22;4049;49.468;11.200;2022-09-09T05:52:22;13.80;99.90
8008;DHT22;4049;49.468;11.200;2022-09-09T05:54:49;13.80;99.90
8008;DHT22;4049;49.468;11.200;2022-09-09T05:57:16;13.80;99.90
8008;DHT22;4049;49.468;11.200;2022-09-09T05:59:44;13.90;99.90
8008;DHT22;4049;49.468;11.200;2022-09-09T06:02:11;13.90;99.90
8008;DHT22;4049;49.468;11.200;2022-09-09T06:04:39;13.90;99.90
8008;DHT22;4049;49.468;11.200;2022-09-09T06:07:05;13.90;99.90
8008;DHT22;4049;49.468;11.200;2022-09-09T06:09:34;13.90;99.90
8008;DHT22;4049;49.468;11.200;2022-09-09T06:12:01;14.00;99.90
8008;DHT22;4049;49.468;11.200;2022-09-09T06:14:28;14.00;99.90
8008;DHT22;4049;49.468;11.200;2022-09-09T06:16:54;14.00;99.90
8008;DHT22;4049;49.468;11.200;2022-09-09T06:19:22;14.00;99.90
8008;DHT22;4049;49.468;11.200;2022-09-09T06:21:49;14.00;99.90
8008;DHT22;4049;49.468;11.200;2022-09-09T06:24:16;14.10;99.90
8008;DHT22;4049;49.468;11.200;2022-09-09T06:26:46;14.10;99.90
8008;DHT22;4049;49.468;11.200;2022-09-09T06:29:13;14.20;99.90
8008;DHT22;4049;49.468;11.200;2022-09-09T06:31:40;14.30;99.90
8008;DHT22;4049;49.468;11.200;2022-09-09T06:34:07;14.40;99.90
8008;DHT22;4049;49.468;11.200;2022-09-09T06:36:36;14.50;99.90
8008;DHT22;4049;49.468;11.200;2022-09-09T06:39:04;14.60;99.90
8008;DHT22;4049;49.468;11.200;2022-09-09T06:41:31;14.60;99.90
8008;DHT22;4049;49.468;11.200;2022-09-09T06:44:00;14.70;99.90
8008;DHT22;4049;49.468;11.200;2022-09-09T06:46:29;14.80;99.90
8008;DHT22;4049;49.468;11.200;2022-09-09T06:48:59;14.80;99.90
8008;DHT22;4049;49.468;11.200;2022-09-09T06:51:27;15.00;99.90
8008;DHT22;4049;49.468;11.200;2022-09-09T06:53:56;15.00;99.90
8008;DHT22;4049;49.468;11.200;2022-09-09T06:56:25;15.00;99.90
8008;DHT22;4049;49.468;11.200;2022-09-09T06:58:54;15.10;99.90
8008;DHT22;4049;49.468;11.200;2022-09-09T07:01:24;15.20;99.90
8008;DHT22;4049;49.468;11.200;2022-09-09T07:03:52;15.30;99.90
8008;DHT22;4049;49.468;11.200;2022-09-09T07:06:21;15.40;99.90
8008;DHT22;4049;49.468;11.200;2022-09-09T07:08:50;15.40;99.90
8008;DHT22;4049;49.468;11.200;2022-09-09T07:11:18;15.50;99.90
8008;DHT22;4049;49.468;11.200;2022-09-09T07:13:45;15.60;99.90
8008;DHT22;4049;49.468;11.200;2022-09-09T07:16:15;15.60;99.90
8008;DHT22;4049;49.468;11.200;2022-09-09T07:18:44;15.70;99.90
8008;DHT22;4049;49.468;11.200;2022-09-09T07:21:12;15.80;99.90
8008;DHT22;4049;49.468;11.200;2022-09-09T07:23:39;15.80;99.90
8008;DHT22;4049;49.468;11.200;2022-09-09T07:26:11;16.00;99.90
8008;DHT22;4049;49.468;11.200;2022-09-09T07:28:39;16.10;99.90
8008;DHT22;4049;49.468;11.200;2022-09-09T07:31:10;16.20;99.90
8008;DHT22;4049;49.468;11.200;2022-09-09T07:33:43;16.30;99.90
8008;DHT22;4049;49.468;11.200;2022-09-09T07:36:13;16.30;99.90
8008;DHT22;4049;49.468;11.200;2022-09-09T07:38:41;16.40;99.90
8008;DHT22;4049;49.468;11.200;2022-09-09T07:41:11;16.50;99.90
8008;DHT22;4049;49.468;11.200;2022-09-09T07:43:38;16.50;99.90
8008;DHT22;4049;49.468;11.200;2022-09-09T07:46:06;16.50;99.90
8008;DHT22;4049;49.468;11.200;2022-09-09T07:48:34;16.60;99.90
8008;DHT22;4049;49.468;11.200;2022-09-09T07:51:07;16.60;99.90
8008;DHT22;4049;49.468;11.200;2022-09-09T07:53:36;16.60;99.90
8008;DHT22;4049;49.468;11.200;2022-09-09T07:56:05;16.70;99.90
8008;DHT22;4049;49.468;11.200;2022-09-09T07:58:32;16.90;99.90
8008;DHT22;4049;49.468;11.200;2022-09-09T08:00:59;17.00;99.90
8008;DHT22;4049;49.468;11.200;2022-09-09T08:03:26;17.10;99.90
8008;DHT22;4049;49.468;11.200;2022-09-09T08:05:59;17.10;99.90
8008;DHT22;4049;49.468;11.200;2022-09-09T08:08:28;17.20;99.90
8008;DHT22;4049;49.468;11.200;2022-09-09T08:11:02;17.20;99.90
8008;DHT22;4049;49.468;11.200;2022-09-09T08:13:30;17.20;99.90
8008;DHT22;4049;49.468;11.200;2022-09-09T08:16:04;17.40;99.90
8008;DHT22;4049;49.468;11.200;2022-09-09T08:18:31;17.40;99.90
8008;DHT22;4049;49.468;11.200;2022-09-09T08:21:05;17.40;99.90
8008;DHT22;4049;49.468;11.200;2022-09-09T08:23:33;17.50;99.90
8008;DHT22;4049;49.468;11.200;2022-09-09T08:26:04;17.50;99.90
8008;DHT22;4049;49.468;11.200;2022-09-09T08:28:31;17.50;99.90
8008;DHT22;4049;49.468;11.200;2022-09-09T08:31:08;17.50;99.90
8008;DHT22;4049;49.468;11.200;2022-09-09T08:33:35;17.70;99.90
8008;DHT22;4049;49.468;11.200;2022-09-09T08:36:05;17.70;99.90
8008;DHT22;4049;49.468;11.200;2022-09-09T08:38:37;17.80;99.90
8008;DHT22;4049;49.468;11.200;2022-09-09T08:41:17;17.90;99.90
8008;DHT22;4049;49.468;11.200;2022-09-09T08:43:50;18.00;99.90
8008;DHT22;4049;49.468;11.200;2022-09-09T08:46:23;18.10;99.90
8008;DHT22;4049;49.468;11.200;2022-09-09T08:48:56;18.10;99.90
8008;DHT22;4049;49.468;11.200;2022-09-09T08:51:26;18.10;99.90
8008;DHT22;4049;49.468;11.200;2022-09-09T08:53:55;18.20;99.90
8008;DHT22;4049;49.468;11.200;2022-09-09T08:56:27;18.30;99.90
8008;DHT22;4049;49.468;11.200;2022-09-09T08:58:55;18.40;99.90
8008;DHT22;4049;49.468;11.200;2022-09-09T09:01:40;18.50;99.90
8008;DHT22;4049;49.468;11.200;2022-09-09T09:04:21;18.60;99.90
8008;DHT22;4049;49.468;11.200;2022-09-09T09:07:07;18.60;99.90
8008;DHT22;4049;49.468;11.200;2022-09-09T09:09:44;18.70;99.90
8008;DHT22;4049;49.468;11.200;2022-09-09T09:12:16;18.80;99.90
8008;DHT22;4049;49.468;11.200;2022-09-09T09:14:47;18.90;99.90
8008;DHT22;4049;49.468;11.200;2022-09-09T09:17:17;19.00;99.90
8008;DHT22;4049;49.468;11.200;2022-09-09T09:19:46;19.10;99.90
8008;DHT22;4049;49.468;11.200;2022-09-09T09:22:17;19.10;99.90
8008;DHT22;4049;49.468;11.200;2022-09-09T09:24:51;19.20;99.90
8008;DHT22;4049;49.468;11.200;2022-09-09T09:27:25;19.30;99.90
8008;DHT22;4049;49.468;11.200;2022-09-09T09:29:55;19.30;99.90
8008;DHT22;4049;49.468;11.200;2022-09-09T09:32:24;19.40;99.90
8008;DHT22;4049;49.468;11.200;2022-09-09T09:34:55;19.50;99.90
8008;DHT22;4049;49.468;11.200;2022-09-09T09:37:28;19.50;99.90
8008;DHT22;4049;49.468;11.200;2022-09-09T09:40:08;19.60;99.90
8008;DHT22;4049;49.468;11.200;2022-09-09T09:42:35;19.70;99.90
8008;DHT22;4049;49.468;11.200;2022-09-09T09:45:08;19.70;99.90
8008;DHT22;4049;49.468;11.200;2022-09-09T09:47:35;19.70;99.90
8008;DHT22;4049;49.468;11.200;2022-09-09T09:50:03;19.80;99.90
8008;DHT22;4049;49.468;11.200;2022-09-09T09:52:31;20.00;99.90
8008;DHT22;4049;49.468;11.200;2022-09-09T09:55:12;20.20;99.90
8008;DHT22;4049;49.468;11.200;2022-09-09T09:57:41;20.40;99.90
8008;DHT22;4049;49.468;11.200;2022-09-09T10:00:14;20.50;99.90
8008;DHT22;4049;49.468;11.200;2022-09-09T10:02:43;20.50;99.90
8008;DHT22;4049;49.468;11.200;2022-09-09T10:05:15;20.60;99.90
8008;DHT22;4049;49.468;11.200;2022-09-09T10:07:43;20.60;99.90
8008;DHT22;4049;49.468;11.200;2022-09-09T10:10:17;20.60;99.90
8008;DHT22;4049;49.468;11.200;2022-09-09T10:12:55;20.80;99.90
8008;DHT22;4049;49.468;11.200;2022-09-09T10:15:32;20.90;99.90
8008;DHT22;4049;49.468;11.200;2022-09-09T10:18:16;21.10;99.90
8008;DHT22;4049;49.468;11.200;2022-09-09T10:20:54;21.40;99.90
8008;DHT22;4049;49.468;11.200;2022-09-09T10:23:33;21.60;99.90
8008;DHT22;4049;49.468;11.200;2022-09-09T10:26:16;21.80;99.90
8008;DHT22;4049;49.468;11.200;2022-09-09T10:28:58;22.00;99.90
8008;DHT22;4049;49.468;11.200;2022-09-09T10:31:37;22.20;99.90
8008;DHT22;4049;49.468;11.200;2022-09-09T10:34:14;22.30;99.90
8008;DHT22;4049;49.468;11.200;2022-09-09T10:36:47;22.40;99.70
8008;DHT22;4049;49.468;11.200;2022-09-09T10:39:25;22.60;97.60
8008;DHT22;4049;49.468;11.200;2022-09-09T10:42:01;22.60;95.50
8008;DHT22;4049;49.468;11.200;2022-09-09T10:44:56;22.70;96.30
8008;DHT22;4049;49.468;11.200;2022-09-09T10:47:50;22.90;95.70
8008;DHT22;4049;49.468;11.200;2022-09-09T10:50:29;23.10;97.00
8008;DHT22;4049;49.468;11.200;2022-09-09T10:53:06;23.20;93.80
8008;DHT22;4049;49.468;11.200;2022-09-09T10:55:38;23.10;93.80
8008;DHT22;4049;49.468;11.200;2022-09-09T10:58:11;22.90;91.00
8008;DHT22;4049;49.468;11.200;2022-09-09T11:00:43;23.10;91.40
8008;DHT22;4049;49.468;11.200;2022-09-09T11:03:18;23.30;90.80
8008;DHT22;4049;49.468;11.200;2022-09-09T11:05:49;23.50;88.20
8008;DHT22;4049;49.468;11.200;2022-09-09T11:08:19;23.70;88.90
8008;DHT22;4049;49.468;11.200;2022-09-09T11:10:51;24.00;91.00
8008;DHT22;4049;49.468;11.200;2022-09-09T11:13:26;23.90;78.60
8008;DHT22;4049;49.468;11.200;2022-09-09T11:16:00;23.70;81.00
8008;DHT22;4049;49.468;11.200;2022-09-09T11:18:29;23.50;82.40
8008;DHT22;4049;49.468;11.200;2022-09-09T11:21:01;23.40;80.30
8008;DHT22;4049;49.468;11.200;2022-09-09T11:23:38;23.30;84.00
8008;DHT22;4049;49.468;11.200;2022-09-09T11:26:07;23.20;82.90
8008;DHT22;4049;49.468;11.200;2022-09-09T11:28:51;23.10;87.30
8008;DHT22;4049;49.468;11.200;2022-09-09T11:31:38;23.10;85.70
8008;DHT22;4049;49.468;11.200;2022-09-09T11:34:31;23.30;85.10
8008;DHT22;4049;49.468;11.200;2022-09-09T11:37:29;23.40;85.50
8008;DHT22;4049;49.468;11.200;2022-09-09T11:40:19;23.50;86.70
8008;DHT22;4049;49.468;11.200;2022-09-09T11:42:46;23.70;80.10
8008;DHT22;4049;49.468;11.200;2022-09-09T11:45:25;23.70;76.70
8008;DHT22;4049;49.468;11.200;2022-09-09T11:47:56;23.60;75.80
8008;DHT22;4049;49.468;11.200;2022-09-09T11:50:32;23.60;75.10
8008;DHT22;4049;49.468;11.200;2022-09-09T11:53:20;23.60;75.80
8008;DHT22;4049;49.468;11.200;2022-09-09T11:56:08;24.20;74.50
8008;DHT22;4049;49.468;11.200;2022-09-09T11:58:44;24.90;71.90
8008;DHT22;4049;49.468;11.200;2022-09-09T12:01:30;25.50;66.40
8008;DHT22;4049;49.468;11.200;2022-09-09T12:04:26;25.80;59.10
8008;DHT22;4049;49.468;11.200;2022-09-09T12:06:57;25.30;59.00
8008;DHT22;4049;49.468;11.200;2022-09-09T12:12:28;25.40;56.50
8008;DHT22;4049;49.468;11.200;2022-09-09T12:14:59;24.90;57.80
8008;DHT22;4049;49.468;11.200;2022-09-09T12:17:29;24.60;59.10
8008;DHT22;4049;49.468;11.200;2022-09-09T12:20:08;24.30;63.10
8008;DHT22;4049;49.468;11.200;2022-09-09T12:22:47;24.10;65.20
8008;DHT22;4049;49.468;11.200;2022-09-09T12:25:26;23.90;64.50
8008;DHT22;4049;49.468;11.200;2022-09-09T12:28:02;23.90;65.20
8008;DHT22;4049;49.468;11.200;2022-09-09T12:30:34;24.20;68.30
8008;DHT22;4049;49.468;11.200;2022-09-09T12:33:10;24.60;65.80
8008;DHT22;4049;49.468;11.200;2022-09-09T12:35:39;25.00;58.90
8008;DHT22;4049;49.468;11.200;2022-09-09T12:38:13;25.30;57.40
8008;DHT22;4049;49.468;11.200;2022-09-09T12:40:42;25.50;51.60
8008;DHT22;4049;49.468;11.200;2022-09-09T12:43:20;25.20;50.10
8008;DHT22;4049;49.468;11.200;2022-09-09T12:45:48;25.30;51.60
8008;DHT22;4049;49.468;11.200;2022-09-09T12:48:30;25.40;53.30
8008;DHT22;4049;49.468;11.200;2022-09-09T12:50:58;25.40;54.70
8008;DHT22;4049;49.468;11.200;2022-09-09T12:53:28;25.40;55.80
8008;DHT22;4049;49.468;11.200;2022-09-09T12:55:57;25.30;56.60
8008;DHT22;4049;49.468;11.200;2022-09-09T12:58:25;25.20;57.40
8008;DHT22;4049;49.468;11.200;2022-09-09T13:00:55;25.30;56.50
8008;DHT22;4049;49.468;11.200;2022-09-09T13:03:24;25.40;55.90
8008;DHT22;4049;49.468;11.200;2022-09-09T13:05:52;25.20;54.20
8008;DHT22;4049;49.468;11.200;2022-09-09T13:08:19;25.30;54.30
8008;DHT22;4049;49.468;11.200;2022-09-09T13:10:49;25.50;54.60
8008;DHT22;4049;49.468;11.200;2022-09-09T13:13:21;25.50;53.40
8008;DHT22;4049;49.468;11.200;2022-09-09T13:15:52;25.30;52.30
8008;DHT22;4049;49.468;11.200;2022-09-09T13:18:22;25.10;52.80
8008;DHT22;4049;49.468;11.200;2022-09-09T13:20:51;24.70;55.60
8008;DHT22;4049;49.468;11.200;2022-09-09T13:23:20;24.20;58.00
8008;DHT22;4049;49.468;11.200;2022-09-09T13:25:55;23.60;59.80
8008;DHT22;4049;49.468;11.200;2022-09-09T13:28:24;23.10;62.20
8008;DHT22;4049;49.468;11.200;2022-09-09T13:30:58;22.70;66.30
8008;DHT22;4049;49.468;11.200;2022-09-09T13:33:33;22.50;68.60
8008;DHT22;4049;49.468;11.200;2022-09-09T13:36:06;22.50;71.40
8008;DHT22;4049;49.468;11.200;2022-09-09T13:38:36;22.60;77.30
8008;DHT22;4049;49.468;11.200;2022-09-09T13:41:05;22.90;84.70
8008;DHT22;4049;49.468;11.200;2022-09-09T13:43:36;23.30;83.00
8008;DHT22;4049;49.468;11.200;2022-09-09T13:46:05;23.60;77.40
8008;DHT22;4049;49.468;11.200;2022-09-09T13:48:32;23.70;72.20
8008;DHT22;4049;49.468;11.200;2022-09-09T13:51:01;23.90;74.20
8008;DHT22;4049;49.468;11.200;2022-09-09T13:53:30;24.10;71.60
8008;DHT22;4049;49.468;11.200;2022-09-09T13:55:57;24.30;70.50
8008;DHT22;4049;49.468;11.200;2022-09-09T13:58:25;24.50;68.90
8008;DHT22;4049;49.468;11.200;2022-09-09T14:00:52;24.70;67.60
8008;DHT22;4049;49.468;11.200;2022-09-09T14:03:20;24.80;62.60
8008;DHT22;4049;49.468;11.200;2022-09-09T14:05:47;24.80;66.40
8008;DHT22;4049;49.468;11.200;2022-09-09T14:08:24;24.60;65.20
8008;DHT22;4049;49.468;11.200;2022-09-09T14:10:53;24.30;64.10
8008;DHT22;4049;49.468;11.200;2022-09-09T14:13:21;24.00;67.40
8008;DHT22;4049;49.468;11.200;2022-09-09T14:15:48;23.70;68.80
8008;DHT22;4049;49.468;11.200;2022-09-09T14:18:16;23.50;69.80
8008;DHT22;4049;49.468;11.200;2022-09-09T14:20:44;23.40;67.80
8008;DHT22;4049;49.468;11.200;2022-09-09T14:23:11;23.20;66.80
8008;DHT22;4049;49.468;11.200;2022-09-09T14:25:42;23.00;68.70
8008;DHT22;4049;49.468;11.200;2022-09-09T14:28:13;22.90;69.00
8008;DHT22;4049;49.468;11.200;2022-09-09T14:30:41;22.80;71.00
8008;DHT22;4049;49.468;11.200;2022-09-09T14:33:13;22.20;73.00
8008;DHT22;4049;49.468;11.200;2022-09-09T14:35:40;21.90;87.60
8008;DHT22;4049;49.468;11.200;2022-09-09T14:38:08;21.50;95.00
8008;DHT22;4049;49.468;11.200;2022-09-09T14:40:36;21.40;97.70
8008;DHT22;4049;49.468;11.200;2022-09-09T14:43:04;21.40;95.90
8008;DHT22;4049;49.468;11.200;2022-09-09T14:45:35;21.60;95.60
8008;DHT22;4049;49.468;11.200;2022-09-09T14:48:03;21.60;96.90
8008;DHT22;4049;49.468;11.200;2022-09-09T14:50:30;21.60;96.70
8008;DHT22;4049;49.468;11.200;2022-09-09T14:52:57;21.50;95.10
8008;DHT22;4049;49.468;11.200;2022-09-09T14:55:24;21.50;93.80
8008;DHT22;4049;49.468;11.200;2022-09-09T14:57:54;21.50;93.70
8008;DHT22;4049;49.468;11.200;2022-09-09T15:00:21;21.40;93.40
8008;DHT22;4049;49.468;11.200;2022-09-09T15:02:52;21.30;94.60
8008;DHT22;4049;49.468;11.200;2022-09-09T15:05:19;21.30;97.00
8008;DHT22;4049;49.468;11.200;2022-09-09T15:07:46;21.40;97.70
8008;DHT22;4049;49.468;11.200;2022-09-09T15:10:14;21.40;97.80
8008;DHT22;4049;49.468;11.200;2022-09-09T15:12:42;21.50;97.20
8008;DHT22;4049;49.468;11.200;2022-09-09T15:15:10;21.60;98.40
8008;DHT22;4049;49.468;11.200;2022-09-09T15:17:38;21.40;98.10
8008;DHT22;4049;49.468;11.200;2022-09-09T15:20:07;21.20;98.40
8008;DHT22;4049;49.468;11.200;2022-09-09T15:22:34;21.20;99.40
8008;DHT22;4049;49.468;11.200;2022-09-09T15:25:04;21.20;99.80
8008;DHT22;4049;49.468;11.200;2022-09-09T15:27:31;21.20;99.90
8008;DHT22;4049;49.468;11.200;2022-09-09T15:29:59;21.40;99.90
8008;DHT22;4049;49.468;11.200;2022-09-09T15:32:27;21.50;99.90
8008;DHT22;4049;49.468;11.200;2022-09-09T15:34:54;21.60;99.90
8008;DHT22;4049;49.468;11.200;2022-09-09T15:37:22;21.60;99.40
8008;DHT22;4049;49.468;11.200;2022-09-09T15:39:49;21.60;98.60
8008;DHT22;4049;49.468;11.200;2022-09-09T15:42:16;21.50;96.90
8008;DHT22;4049;49.468;11.200;2022-09-09T15:44:43;21.50;97.70
8008;DHT22;4049;49.468;11.200;2022-09-09T15:47:11;21.60;97.70
8008;DHT22;4049;49.468;11.200;2022-09-09T15:49:39;21.40;98.50
8008;DHT22;4049;49.468;11.200;2022-09-09T15:52:06;21.40;98.80
8008;DHT22;4049;49.468;11.200;2022-09-09T15:54:35;21.30;97.50
8008;DHT22;4049;49.468;11.200;2022-09-09T15:57:06;21.30;97.30
8008;DHT22;4049;49.468;11.200;2022-09-09T15:59:34;21.30;99.20
8008;DHT22;4049;49.468;11.200;2022-09-09T16:02:01;21.30;98.30
8008;DHT22;4049;49.468;11.200;2022-09-09T16:04:28;21.40;99.10
8008;DHT22;4049;49.468;11.200;2022-09-09T16:06:58;21.20;90.00
8008;DHT22;4049;49.468;11.200;2022-09-09T16:09:26;21.20;84.40
8008;DHT22;4049;49.468;11.200;2022-09-09T16:11:56;21.10;85.20